Time;durP1;ratioP1;P1;durP2;ratioP2;P2;SDS_P1;SDS_P2;PMS_P1;PMS_P2;Temp;Humidity;BMP_temperature;BMP_pressure;BME280_temperature;BME280_humidity;BME280_pressure;Samples;Min_cycle;Max_cycle;Signal;HPM_P1;HPM_P2
2023/01/21 00:01:19;;;;;;;5.55;1.00;;;23.40;99.90;;;;;;5029423;28;20232;-81
2023/01/21 00:03:50;;;;;;;3.00;0.80;;;23.50;99.90;;;;;;5023154;28;20263;-81
2023/01/21 00:06:21;;;;;;;5.30;1.00;;;23.50;99.90;;;;;;5034008;28;20203;-81
2023/01/21 00:08:52;;;;;;;2.97;1.05;;;23.60;99.90;;;;;;5029985;28;20311;-80
2023/01/21 00:11:23;;;;;;;5.82;1.02;;;23.70;99.90;;;;;;5020676;28;20303;-81
2023/01/21 00:13:59;;;;;;;6.20;1.35;;;23.90;99.90;;;;;;5027226;28;20300;-80
2023/01/21 00:16:30;;;;;;;2.63;0.95;;;23.80;99.90;;;;;;5027105;28;20215;-80
2023/01/21 00:19:01;;;;;;;4.43;1.05;;;23.90;99.90;;;;;;5019033;28;20224;-81
2023/01/21 00:21:32;;;;;;;6.32;1.20;;;24.00;99.90;;;;;;5025765;28;20193;-81
2023/01/21 00:24:03;;;;;;;5.35;1.10;;;24.20;99.90;;;;;;5047218;28;20570;-80
2023/01/21 00:26:34;;;;;;;4.40;1.00;;;24.40;99.90;;;;;;5031517;28;20280;-81
2023/01/21 00:29:07;;;;;;;6.72;0.98;;;24.50;99.90;;;;;;5028190;28;20553;-80
2023/01/21 00:31:38;;;;;;;10.55;1.30;;;24.50;99.90;;;;;;5028147;28;20708;-81
2023/01/21 00:34:11;;;;;;;4.32;1.05;;;24.70;99.90;;;;;;5021571;28;20683;-80
2023/01/21 00:36:42;;;;;;;4.15;1.20;;;24.70;99.90;;;;;;5038614;28;20663;-80
2023/01/21 00:39:14;;;;;;;6.13;1.30;;;24.70;99.90;;;;;;5030789;28;20197;-80
2023/01/21 00:41:45;;;;;;;2.90;0.80;;;24.70;99.90;;;;;;5023742;28;20266;-80
2023/01/21 00:44:18;;;;;;;4.38;1.05;;;24.60;99.90;;;;;;5029926;28;20277;-82
2023/01/21 00:46:50;;;;;;;4.78;1.17;;;24.60;99.90;;;;;;5025389;28;20204;-81
2023/01/21 00:49:21;;;;;;;3.08;1.25;;;24.60;99.90;;;;;;5026224;28;20404;-81
2023/01/21 00:51:52;;;;;;;3.63;0.98;;;24.60;99.90;;;;;;5029372;28;20201;-81
2023/01/21 00:54:23;;;;;;;2.22;0.57;;;24.70;99.90;;;;;;5034522;28;20280;-80
2023/01/21 00:56:54;;;;;;;3.70;0.93;;;24.80;99.90;;;;;;5027155;28;20267;-80
2023/01/21 00:59:28;;;;;;;4.22;1.08;;;24.90;99.90;;;;;;5024322;28;20277;-80
2023/01/21 01:02:00;;;;;;;7.82;1.02;;;24.90;99.90;;;;;;5030423;28;20675;-80
2023/01/21 01:04:30;;;;;;;6.68;1.15;;;24.90;99.90;;;;;;5037289;28;20197;-80
2023/01/21 01:07:03;;;;;;;3.45;1.00;;;24.90;99.90;;;;;;5038443;28;20261;-81
2023/01/21 01:09:34;;;;;;;3.60;1.05;;;24.90;99.90;;;;;;5040046;28;20197;-80
2023/01/21 01:12:05;;;;;;;2.95;0.73;;;24.90;99.90;;;;;;5020830;28;20201;-79
2023/01/21 01:14:38;;;;;;;3.88;1.02;;;24.80;99.90;;;;;;5032471;28;20292;-80
2023/01/21 01:17:09;;;;;;;4.53;0.70;;;24.80;99.90;;;;;;5032100;28;20232;-80
2023/01/21 01:19:40;;;;;;;2.75;0.68;;;24.70;99.90;;;;;;5019136;28;20638;-81
2023/01/21 01:22:11;;;;;;;3.42;0.80;;;24.60;99.90;;;;;;5030302;28;20208;-80
2023/01/21 01:24:42;;;;;;;4.70;0.82;;;24.40;99.90;;;;;;5031845;28;20252;-80
2023/01/21 01:27:13;;;;;;;4.55;0.90;;;24.40;99.90;;;;;;5028851;28;20228;-79
2023/01/21 01:29:46;;;;;;;2.55;0.90;;;24.30;99.90;;;;;;5013713;28;20193;-78
2023/01/21 01:32:17;;;;;;;3.80;0.70;;;24.20;99.90;;;;;;5025716;28;20256;-78
2023/01/21 01:34:48;;;;;;;3.90;0.65;;;24.20;99.90;;;;;;5016159;28;20695;-79
2023/01/21 01:37:20;;;;;;;7.78;1.05;;;24.10;99.90;;;;;;5028636;28;20261;-78
2023/01/21 01:39:50;;;;;;;3.33;0.70;;;24.10;99.90;;;;;;5032209;28;20197;-79
2023/01/21 01:42:21;;;;;;;4.95;1.00;;;24.10;99.90;;;;;;5030409;28;20720;-81
2023/01/21 01:45:06;;;;;;;4.38;0.90;;;24.20;99.90;;;;;;5031979;28;20200;-80
2023/01/21 01:47:42;;;;;;;4.05;1.02;;;24.20;99.90;;;;;;5015548;28;20310;-80
2023/01/21 01:50:16;;;;;;;3.05;0.82;;;24.30;99.90;;;;;;5029539;28;20276;-80
2023/01/21 01:52:48;;;;;;;4.32;1.00;;;24.50;99.90;;;;;;5027958;28;20308;-80
2023/01/21 01:55:19;;;;;;;5.32;0.88;;;24.60;99.90;;;;;;5022500;28;20233;-81
2023/01/21 01:57:54;;;;;;;2.92;0.70;;;24.70;99.90;;;;;;5045221;28;20197;-79
2023/01/21 02:00:28;;;;;;;4.07;0.80;;;24.80;99.90;;;;;;5030494;28;20208;-79
2023/01/21 02:05:48;;;;;;;4.80;0.73;;;24.80;99.90;;;;;;5036802;28;20227;-79
2023/01/21 02:08:19;;;;;;;4.18;0.90;;;24.80;99.90;;;;;;5023332;28;20223;-79
2023/01/21 02:10:50;;;;;;;3.85;1.02;;;24.90;99.90;;;;;;5033196;28;20285;-79
2023/01/21 02:13:21;;;;;;;3.75;0.77;;;25.00;99.90;;;;;;5032936;28;20304;-80
2023/01/21 02:16:05;;;;;;;1.90;0.63;;;25.10;99.90;;;;;;5030339;28;20759;-79
2023/01/21 02:18:45;;;;;;;3.55;0.93;;;25.10;99.90;;;;;;5034823;28;20288;-79
2023/01/21 02:21:47;;;;;;;3.78;0.93;;;25.30;99.90;;;;;;5032947;28;20233;-79
2023/01/21 02:24:43;;;;;;;4.40;1.08;;;25.30;99.90;;;;;;5019948;28;20216;-79
2023/01/21 02:27:43;;;;;;;3.78;0.85;;;25.30;99.90;;;;;;5029644;28;20200;-80
2023/01/21 02:30:58;;;;;;;3.03;0.65;;;25.20;99.90;;;;;;5034636;28;20203;-80
2023/01/21 02:34:02;;;;;;;3.63;0.70;;;25.20;99.90;;;;;;4974114;28;20795;-80
2023/01/21 02:36:43;;;;;;;3.25;0.70;;;25.20;99.90;;;;;;4958941;28;20725;-80
2023/01/21 02:39:27;;;;;;;2.88;0.70;;;25.00;99.90;;;;;;5020102;28;20200;-80
2023/01/21 02:42:06;;;;;;;3.65;0.90;;;25.20;99.90;;;;;;5030344;28;20648;-80
2023/01/21 02:44:41;;;;;;;3.75;0.88;;;25.20;99.90;;;;;;5032024;28;20571;-80
2023/01/21 02:47:20;;;;;;;3.30;0.60;;;25.30;99.90;;;;;;5019245;28;20202;-80
2023/01/21 02:49:58;;;;;;;3.97;0.77;;;25.30;99.90;;;;;;5030665;28;20291;-80
2023/01/21 02:52:30;;;;;;;3.45;0.90;;;25.30;99.90;;;;;;5033180;28;20197;-80
2023/01/21 02:55:02;;;;;;;2.75;0.80;;;25.40;99.90;;;;;;5025686;28;20225;-79
2023/01/21 02:57:45;;;;;;;4.55;0.80;;;25.40;99.90;;;;;;5027235;28;20257;-80
2023/01/21 03:00:22;;;;;;;2.22;0.50;;;25.30;99.90;;;;;;5032495;28;20201;-80
2023/01/21 03:03:26;;;;;;;4.75;0.90;;;25.20;99.90;;;;;;5040188;28;20568;-81
2023/01/21 03:06:31;;;;;;;2.63;0.60;;;25.20;99.90;;;;;;5019544;28;20549;-81
2023/01/21 03:09:10;;;;;;;2.83;0.65;;;25.10;99.90;;;;;;5022636;28;20707;-82
2023/01/21 03:11:42;;;;;;;2.50;0.70;;;25.30;99.90;;;;;;5026893;28;20193;-82
2023/01/21 03:17:18;;;;;;;2.42;0.50;;;25.40;99.90;;;;;;4976691;28;20576;-80
2023/01/21 03:20:00;;;;;;;4.13;0.90;;;25.40;99.90;;;;;;5024481;28;20707;-81
2023/01/21 03:22:36;;;;;;;5.40;0.88;;;25.30;99.90;;;;;;5039235;28;20201;-82
2023/01/21 03:25:09;;;;;;;4.57;0.90;;;25.20;99.90;;;;;;5032286;28;20213;-80
2023/01/21 03:27:44;;;;;;;3.75;0.73;;;25.20;99.90;;;;;;5030954;28;20622;-80
2023/01/21 03:30:19;;;;;;;3.42;0.77;;;25.20;99.90;;;;;;5025805;28;20189;-82
2023/01/21 03:32:52;;;;;;;2.80;0.75;;;25.20;99.90;;;;;;5027809;28;20220;-80
2023/01/21 03:35:27;;;;;;;4.28;1.00;;;25.30;99.90;;;;;;5033480;28;20198;-81
2023/01/21 03:38:05;;;;;;;3.88;0.90;;;25.40;99.90;;;;;;5033254;28;20205;-80
2023/01/21 03:40:41;;;;;;;3.15;0.80;;;25.50;99.90;;;;;;5017603;28;20221;-81
2023/01/21 03:43:13;;;;;;;2.70;0.65;;;25.40;99.90;;;;;;5013009;28;20300;-80
2023/01/21 03:45:49;;;;;;;2.72;0.70;;;25.50;99.90;;;;;;5017640;28;20779;-80
2023/01/21 03:48:30;;;;;;;2.47;0.80;;;25.70;99.90;;;;;;5028687;28;20220;-80
2023/01/21 03:51:06;;;;;;;3.67;0.73;;;25.50;99.90;;;;;;5021498;28;20645;-81
2023/01/21 03:53:39;;;;;;;3.42;0.80;;;25.50;99.90;;;;;;5018447;28;20196;-80
2023/01/21 03:56:11;;;;;;;2.47;0.77;;;25.60;99.90;;;;;;5030739;28;20229;-80
2023/01/21 03:58:42;;;;;;;5.47;0.88;;;25.80;99.90;;;;;;5029424;28;20284;-80
2023/01/21 04:01:13;;;;;;;3.65;0.63;;;26.10;99.90;;;;;;5018895;28;20280;-80
2023/01/21 04:03:44;;;;;;;3.20;0.85;;;26.20;99.90;;;;;;5028701;28;20209;-80
2023/01/21 04:06:17;;;;;;;4.43;0.90;;;26.40;99.90;;;;;;5035503;28;20199;-80
2023/01/21 04:08:51;;;;;;;1.90;0.50;;;26.30;99.90;;;;;;5030824;28;20221;-81
2023/01/21 04:11:22;;;;;;;2.35;0.63;;;26.40;99.90;;;;;;5032785;28;20205;-80
2023/01/21 04:13:53;;;;;;;2.50;0.60;;;26.40;99.90;;;;;;5031695;28;20553;-80
2023/01/21 04:16:24;;;;;;;3.15;0.60;;;26.30;99.90;;;;;;5027863;28;20567;-80
2023/01/21 04:18:55;;;;;;;3.78;0.98;;;26.20;99.90;;;;;;5030340;28;20281;-80
2023/01/21 04:21:26;;;;;;;7.53;1.00;;;26.00;99.90;;;;;;5029930;28;20205;-80
2023/01/21 04:23:59;;;;;;;3.58;0.77;;;25.90;99.90;;;;;;5025208;28;20208;-80
2023/01/21 04:26:30;;;;;;;3.95;1.00;;;25.70;99.90;;;;;;5022716;28;20201;-80
2023/01/21 04:29:01;;;;;;;6.63;0.70;;;25.60;99.90;;;;;;5027948;28;20581;-80
2023/01/21 04:31:32;;;;;;;4.15;0.70;;;25.50;99.90;;;;;;5029229;28;20691;-80
2023/01/21 04:34:04;;;;;;;3.97;0.80;;;25.40;99.90;;;;;;5024957;28;20197;-81
2023/01/21 04:36:35;;;;;;;4.90;0.93;;;25.40;99.90;;;;;;5030620;28;20276;-80
2023/01/21 04:39:07;;;;;;;2.58;0.80;;;25.20;99.90;;;;;;5047623;28;20204;-80
2023/01/21 04:41:38;;;;;;;5.78;0.85;;;25.30;99.90;;;;;;5031749;28;20202;-80
2023/01/21 04:44:09;;;;;;;2.35;0.70;;;25.20;99.90;;;;;;5029155;28;20189;-80
2023/01/21 04:46:40;;;;;;;2.33;0.80;;;25.10;99.90;;;;;;5029769;28;20197;-80
2023/01/21 04:49:11;;;;;;;2.58;0.60;;;25.10;99.90;;;;;;5031731;28;20225;-80
2023/01/21 04:51:43;;;;;;;3.88;0.60;;;25.20;99.90;;;;;;5023909;28;20567;-81
2023/01/21 04:54:16;;;;;;;8.18;0.85;;;25.20;99.90;;;;;;5032203;28;20208;-80
2023/01/21 04:56:46;;;;;;;3.35;1.02;;;25.30;99.90;;;;;;5051396;28;20572;-80
2023/01/21 04:59:18;;;;;;;3.20;0.80;;;25.40;99.90;;;;;;5046028;28;20201;-81
2023/01/21 05:01:49;;;;;;;2.10;0.68;;;25.50;99.90;;;;;;5030027;28;20217;-80
2023/01/21 05:04:21;;;;;;;2.67;0.90;;;25.50;99.90;;;;;;5017993;28;20193;-80
2023/01/21 05:06:52;;;;;;;3.00;1.00;;;25.60;99.90;;;;;;5028362;28;20656;-80
2023/01/21 05:09:25;;;;;;;4.43;0.90;;;25.60;99.90;;;;;;5033512;28;20221;-80
2023/01/21 05:11:56;;;;;;;4.68;1.15;;;25.60;99.90;;;;;;5025208;28;20193;-80
2023/01/21 05:14:27;;;;;;;5.53;0.90;;;25.60;99.90;;;;;;5021722;28;22146;-80
2023/01/21 05:16:58;;;;;;;3.55;0.70;;;25.70;99.90;;;;;;5032096;28;20197;-80
2023/01/21 05:19:29;;;;;;;4.97;1.00;;;25.80;99.90;;;;;;5036714;28;20197;-80
2023/01/21 05:22:00;;;;;;;3.45;0.98;;;25.80;99.90;;;;;;5035147;28;20288;-80
2023/01/21 05:24:34;;;;;;;4.03;0.85;;;25.70;99.90;;;;;;5037005;28;20315;-80
2023/01/21 05:27:05;;;;;;;4.60;1.20;;;25.80;99.90;;;;;;5027027;28;20193;-79
2023/01/21 05:29:36;;;;;;;4.85;1.08;;;25.90;99.90;;;;;;5024869;28;20232;-79
2023/01/21 05:32:07;;;;;;;5.28;0.90;;;26.10;99.90;;;;;;5026943;28;20204;-80
2023/01/21 05:34:38;;;;;;;4.90;0.90;;;26.30;99.90;;;;;;5034055;28;20284;-80
2023/01/21 05:37:12;;;;;;;4.80;0.98;;;26.30;99.90;;;;;;5035258;28;20221;-81
2023/01/21 05:39:46;;;;;;;4.55;0.88;;;26.60;99.90;;;;;;5007445;28;20206;-81
2023/01/21 05:42:17;;;;;;;4.03;0.90;;;26.80;99.90;;;;;;5023821;28;20222;-80
2023/01/21 05:44:48;;;;;;;4.32;0.73;;;26.80;99.90;;;;;;5029608;28;20218;-81
2023/01/21 05:47:19;;;;;;;2.35;0.77;;;26.80;99.90;;;;;;5035697;28;20629;-80
2023/01/21 05:49:50;;;;;;;2.40;0.60;;;26.70;99.90;;;;;;5033290;28;20664;-81
2023/01/21 05:52:21;;;;;;;3.75;0.90;;;26.70;99.90;;;;;;5034050;28;20204;-81
2023/01/21 05:54:55;;;;;;;2.40;0.70;;;26.80;99.90;;;;;;5034439;28;20239;-81
2023/01/21 05:57:26;;;;;;;4.05;0.75;;;27.10;99.90;;;;;;5034577;28;20196;-81
2023/01/21 05:59:57;;;;;;;2.78;0.60;;;27.40;99.90;;;;;;5054631;28;20201;-81
2023/01/21 06:02:28;;;;;;;2.80;0.88;;;27.60;99.90;;;;;;5023949;28;20251;-81
2023/01/21 06:04:59;;;;;;;3.70;0.80;;;27.70;99.90;;;;;;5034673;28;20284;-81
2023/01/21 06:07:30;;;;;;;3.45;0.65;;;27.80;99.90;;;;;;5033148;28;20204;-80
2023/01/21 06:10:04;;;;;;;3.00;0.70;;;27.70;99.90;;;;;;5034544;28;20217;-78
2023/01/21 06:12:35;;;;;;;2.13;0.52;;;27.80;99.90;;;;;;5041633;28;20221;-81
2023/01/21 06:15:06;;;;;;;4.35;0.90;;;27.80;99.90;;;;;;5028226;28;20194;-80
2023/01/21 06:17:39;;;;;;;3.28;1.00;;;27.90;99.90;;;;;;5033953;28;20205;-81
2023/01/21 06:20:11;;;;;;;3.70;1.00;;;27.70;99.90;;;;;;5032704;28;20197;-80
2023/01/21 06:22:43;;;;;;;2.72;0.70;;;27.30;99.90;;;;;;5025471;28;20201;-80
2023/01/21 06:25:16;;;;;;;3.47;0.70;;;26.80;99.90;;;;;;5034705;28;20209;-81
2023/01/21 06:27:47;;;;;;;2.30;0.70;;;26.50;99.90;;;;;;5033704;28;20599;-80
2023/01/21 06:30:18;;;;;;;4.70;0.88;;;26.20;99.90;;;;;;5039160;28;20232;-80
2023/01/21 06:32:49;;;;;;;2.35;0.68;;;26.00;99.90;;;;;;5024710;28;20675;-80
2023/01/21 06:35:20;;;;;;;5.10;0.90;;;25.80;99.90;;;;;;5033447;28;20208;-80
2023/01/21 06:37:52;;;;;;;4.78;0.90;;;25.60;99.90;;;;;;5035876;28;20653;-81
2023/01/21 06:40:25;;;;;;;2.17;0.65;;;25.50;99.90;;;;;;5034135;28;20193;-81
2023/01/21 06:42:57;;;;;;;3.33;0.70;;;25.50;99.90;;;;;;5033625;28;20208;-80
2023/01/21 06:45:27;;;;;;;3.72;0.80;;;25.60;99.90;;;;;;5028963;28;20201;-81
2023/01/21 06:47:58;;;;;;;4.38;0.80;;;25.60;99.90;;;;;;5023369;28;20204;-80
2023/01/21 06:50:30;;;;;;;3.70;0.80;;;25.50;99.90;;;;;;5032666;28;20229;-80
2023/01/21 06:53:02;;;;;;;4.00;0.70;;;25.50;99.90;;;;;;5017278;28;20194;-81
2023/01/21 06:55:35;;;;;;;3.05;1.15;;;25.40;99.90;;;;;;5029289;28;20235;-80
2023/01/21 06:58:06;;;;;;;3.80;0.90;;;25.30;99.90;;;;;;5027378;28;20212;-80
2023/01/21 07:00:37;;;;;;;4.43;0.90;;;25.10;99.90;;;;;;5026935;28;20221;-80
2023/01/21 07:03:08;;;;;;;3.03;0.88;;;24.90;99.90;;;;;;5030276;28;20205;-81
2023/01/21 07:05:39;;;;;;;6.35;0.95;;;24.80;99.90;;;;;;5028999;28;20248;-81
2023/01/21 07:08:12;;;;;;;5.38;1.30;;;24.70;99.90;;;;;;5030696;28;20189;-80
2023/01/21 07:10:44;;;;;;;3.95;1.10;;;24.60;99.90;;;;;;5020399;28;20220;-79
2023/01/21 07:13:15;;;;;;;4.55;1.08;;;24.60;99.90;;;;;;5022687;28;20213;-81
2023/01/21 07:15:46;;;;;;;3.10;0.80;;;24.50;99.90;;;;;;5030801;28;20208;-81
2023/01/21 07:18:17;;;;;;;3.95;0.90;;;24.40;99.90;;;;;;5032912;28;20225;-81
2023/01/21 07:20:49;;;;;;;3.55;0.90;;;24.30;99.90;;;;;;5030168;28;20625;-79
2023/01/21 07:23:20;;;;;;;3.15;0.80;;;24.20;99.90;;;;;;5021501;28;20201;-80
2023/01/21 07:25:53;;;;;;;3.55;1.23;;;24.10;99.90;;;;;;5033017;28;20209;-80
2023/01/21 07:28:24;;;;;;;2.67;1.40;;;24.10;99.90;;;;;;5029688;28;20252;-80
2023/01/21 07:30:55;;;;;;;3.70;1.15;;;24.10;99.90;;;;;;5033121;28;20229;-81
2023/01/21 07:33:26;;;;;;;5.53;1.50;;;24.10;99.90;;;;;;5033027;28;20201;-80
2023/01/21 07:35:58;;;;;;;3.78;1.20;;;24.10;99.90;;;;;;5033603;28;20197;-82
2023/01/21 07:38:29;;;;;;;4.00;1.10;;;24.10;99.90;;;;;;5031219;28;20193;-82
2023/01/21 07:41:03;;;;;;;2.40;0.90;;;24.10;99.90;;;;;;5031910;28;20236;-82
2023/01/21 07:43:33;;;;;;;3.30;0.90;;;24.00;99.90;;;;;;5035466;28;20263;-82
2023/01/21 07:46:04;;;;;;;4.72;1.10;;;24.00;99.90;;;;;;5032576;28;20571;-83
2023/01/21 07:48:36;;;;;;;4.35;1.20;;;24.00;99.90;;;;;;5022264;28;20290;-82
2023/01/21 07:51:07;;;;;;;6.25;1.55;;;24.00;99.90;;;;;;5024670;28;20232;-82
2023/01/21 07:53:41;;;;;;;5.85;1.33;;;24.10;99.90;;;;;;5032433;28;20622;-82
2023/01/21 07:56:16;;;;;;;4.13;1.20;;;24.20;99.90;;;;;;5032113;28;20259;-81
2023/01/21 07:58:49;;;;;;;4.22;0.90;;;24.20;99.90;;;;;;5030414;28;20236;-82
2023/01/21 08:01:20;;;;;;;3.97;1.20;;;24.30;99.90;;;;;;5031341;28;20232;-81
2023/01/21 08:03:51;;;;;;;3.08;1.00;;;24.30;99.90;;;;;;5034174;28;20247;-80
2023/01/21 08:06:26;;;;;;;2.67;0.90;;;24.20;99.90;;;;;;5031638;28;20272;-80
2023/01/21 08:08:57;;;;;;;4.38;1.02;;;24.10;99.90;;;;;;5031536;28;20197;-82
2023/01/21 08:11:30;;;;;;;8.93;1.25;;;24.10;99.90;;;;;;5040253;28;20730;-81
2023/01/21 08:14:01;;;;;;;7.53;1.40;;;24.00;99.90;;;;;;5020178;28;20680;-81
2023/01/21 08:16:32;;;;;;;3.58;1.10;;;24.00;99.90;;;;;;5028929;28;20714;-81
2023/01/21 08:19:04;;;;;;;4.10;1.10;;;24.00;99.90;;;;;;5029054;28;20687;-81
2023/01/21 08:21:34;;;;;;;3.22;1.20;;;23.90;99.90;;;;;;5018061;28;20289;-82
2023/01/21 08:24:06;;;;;;;4.88;1.10;;;23.90;99.90;;;;;;5028099;28;20250;-81
2023/01/21 08:26:39;;;;;;;3.28;0.93;;;23.90;99.90;;;;;;5012109;28;20205;-81
2023/01/21 08:29:10;;;;;;;4.53;1.00;;;23.80;99.90;;;;;;5026159;28;20197;-80
2023/01/21 08:31:41;;;;;;;3.45;0.90;;;23.80;99.90;;;;;;5030129;28;20697;-81
2023/01/21 08:34:12;;;;;;;3.05;0.82;;;23.70;99.90;;;;;;5031134;28;20200;-81
2023/01/21 08:36:43;;;;;;;2.95;0.90;;;23.70;99.90;;;;;;5031382;28;20198;-81
2023/01/21 08:39:16;;;;;;;5.30;1.08;;;23.60;99.90;;;;;;5030859;28;20244;-79
2023/01/21 08:41:48;;;;;;;3.45;0.90;;;23.50;99.90;;;;;;5032100;28;20668;-80
2023/01/21 08:44:19;;;;;;;4.05;0.90;;;23.50;99.90;;;;;;5032144;28;20205;-81
2023/01/21 08:46:51;;;;;;;4.90;0.98;;;23.50;99.90;;;;;;5028190;28;20193;-80
2023/01/21 08:49:22;;;;;;;2.00;0.80;;;23.40;99.90;;;;;;5017893;28;20203;-82
2023/01/21 08:51:53;;;;;;;4.53;0.90;;;23.40;99.90;;;;;;5025755;28;20209;-79
2023/01/21 08:54:24;;;;;;;4.18;1.00;;;23.40;99.90;;;;;;5020400;28;20196;-80
2023/01/21 08:56:57;;;;;;;4.63;0.98;;;23.40;99.90;;;;;;5026551;28;20686;-81
2023/01/21 08:59:28;;;;;;;2.90;1.02;;;23.30;99.90;;;;;;5028775;28;20561;-80
2023/01/21 09:02:00;;;;;;;5.35;1.33;;;23.30;99.90;;;;;;5025392;28;20637;-80
2023/01/21 09:04:31;;;;;;;2.88;1.10;;;23.30;99.90;;;;;;5029952;28;20814;-80
2023/01/21 09:07:01;;;;;;;3.63;1.20;;;23.40;99.90;;;;;;5029518;28;20196;-81
2023/01/21 09:09:33;;;;;;;3.08;1.00;;;23.40;99.90;;;;;;5019001;28;20202;-81
2023/01/21 09:12:07;;;;;;;3.40;0.98;;;23.50;99.90;;;;;;5025295;28;20201;-80
2023/01/21 09:14:38;;;;;;;3.53;1.00;;;23.50;99.90;;;;;;5017009;28;20197;-79
2023/01/21 09:17:09;;;;;;;4.45;1.13;;;23.50;99.90;;;;;;5033045;28;20197;-80
2023/01/21 09:19:40;;;;;;;3.28;1.00;;;23.50;99.90;;;;;;5026947;28;20203;-81
2023/01/21 09:22:12;;;;;;;3.97;1.00;;;23.40;99.90;;;;;;5027402;28;20950;-80
2023/01/21 09:24:43;;;;;;;5.70;1.05;;;23.40;99.90;;;;;;5029260;28;20193;-80
2023/01/21 09:27:16;;;;;;;3.67;1.00;;;23.30;99.90;;;;;;5032048;28;20194;-79
2023/01/21 09:29:47;;;;;;;2.78;0.60;;;23.30;99.90;;;;;;5041099;28;20324;-81
2023/01/21 09:32:18;;;;;;;3.33;0.90;;;23.20;99.90;;;;;;5036413;28;20207;-78
2023/01/21 09:34:51;;;;;;;3.60;0.93;;;23.20;99.90;;;;;;5020884;28;20204;-80
2023/01/21 09:37:22;;;;;;;2.92;0.85;;;23.20;99.90;;;;;;5028737;28;20189;-80
2023/01/21 09:39:53;;;;;;;3.08;0.80;;;23.20;99.90;;;;;;5028209;28;20193;-80
2023/01/21 09:42:32;;;;;;;4.07;0.88;;;23.10;99.90;;;;;;5016763;28;20205;-80
2023/01/21 09:45:05;;;;;;;2.92;0.80;;;23.00;99.90;;;;;;5033450;28;20197;-80
2023/01/21 09:47:40;;;;;;;3.97;1.00;;;23.00;99.90;;;;;;5034390;28;20201;-81
2023/01/21 09:50:17;;;;;;;3.55;0.98;;;23.00;99.90;;;;;;5028739;28;20699;-81
2023/01/21 09:52:50;;;;;;;4.03;0.50;;;23.00;99.90;;;;;;5026726;28;20612;-80
2023/01/21 09:55:26;;;;;;;2.53;0.77;;;23.00;99.90;;;;;;5030251;28;20228;-80
2023/01/21 09:58:16;;;;;;;2.08;0.65;;;23.00;99.90;;;;;;5035733;28;20267;-80
2023/01/21 10:00:52;;;;;;;4.13;0.80;;;23.00;99.90;;;;;;5031019;28;20213;-80
2023/01/21 10:03:29;;;;;;;4.18;1.05;;;23.00;99.90;;;;;;5020037;28;20229;-81
2023/01/21 10:06:23;;;;;;;3.90;0.77;;;23.00;99.90;;;;;;5021580;28;20222;-81
2023/01/21 10:09:18;;;;;;;7.38;0.90;;;22.80;99.90;;;;;;5017610;28;20220;-80
2023/01/21 10:12:06;;;;;;;2.83;0.80;;;22.80;99.90;;;;;;4999651;28;20319;-80
2023/01/21 10:15:03;;;;;;;3.10;0.70;;;22.80;99.90;;;;;;5024676;28;20225;-81
2023/01/21 10:17:46;;;;;;;2.88;0.70;;;22.80;99.90;;;;;;5026319;28;20208;-81
2023/01/21 10:20:23;;;;;;;2.60;0.70;;;22.80;99.90;;;;;;5028802;28;20190;-81
2023/01/21 10:23:04;;;;;;;2.25;0.80;;;22.90;99.90;;;;;;5024566;28;20197;-81
2023/01/21 10:25:37;;;;;;;3.88;0.80;;;22.80;99.90;;;;;;5031914;28;20205;-80
2023/01/21 10:28:14;;;;;;;4.63;1.00;;;22.80;99.90;;;;;;5028186;28;20224;-81
2023/01/21 10:30:51;;;;;;;5.35;0.70;;;22.80;99.90;;;;;;5023657;28;20221;-81
2023/01/21 10:33:25;;;;;;;4.32;0.88;;;22.80;99.90;;;;;;5046862;28;20244;-81
2023/01/21 10:36:30;;;;;;;2.78;0.70;;;22.80;99.90;;;;;;5030602;28;20212;-81
2023/01/21 10:39:09;;;;;;;3.38;0.85;;;22.80;99.90;;;;;;5029637;28;20200;-81
2023/01/21 10:41:53;;;;;;;3.25;0.70;;;22.70;99.90;;;;;;5031754;28;20295;-82
2023/01/21 10:44:29;;;;;;;3.85;0.70;;;22.80;99.90;;;;;;5030668;28;20201;-81
2023/01/21 10:47:10;;;;;;;3.63;0.80;;;22.70;99.90;;;;;;5031348;28;21631;-80
2023/01/21 10:49:56;;;;;;;5.47;1.10;;;22.70;99.90;;;;;;5014630;28;21398;-80
2023/01/21 10:52:36;;;;;;;2.40;0.63;;;22.70;99.90;;;;;;5030413;28;20205;-81
2023/01/21 10:55:17;;;;;;;3.55;0.70;;;22.60;99.90;;;;;;5027927;28;20225;-80
2023/01/21 10:57:58;;;;;;;3.33;0.65;;;22.50;99.90;;;;;;5025619;28;20256;-80
2023/01/21 11:00:33;;;;;;;3.28;0.60;;;22.50;99.90;;;;;;5027384;28;20221;-80
2023/01/21 11:03:15;;;;;;;3.58;0.80;;;22.60;99.90;;;;;;5026443;28;20203;-80
2023/01/21 11:05:47;;;;;;;5.10;0.60;;;22.60;99.90;;;;;;5033089;28;20202;-80
2023/01/21 11:08:22;;;;;;;2.88;0.70;;;22.60;99.90;;;;;;5030999;28;20221;-79
2023/01/21 11:10:56;;;;;;;3.40;0.80;;;22.70;99.90;;;;;;5029953;28;20229;-79
2023/01/21 11:13:27;;;;;;;5.03;0.90;;;22.60;99.90;;;;;;5030809;28;20665;-79
2023/01/21 11:15:59;;;;;;;3.50;0.98;;;22.60;99.90;;;;;;5035831;28;20213;-80
2023/01/21 11:18:36;;;;;;;2.92;0.73;;;22.70;99.90;;;;;;5044501;28;20197;-79
2023/01/21 11:21:18;;;;;;;1.13;0.52;;;22.70;99.90;;;;;;5029199;28;20714;-79
2023/01/21 11:23:57;;;;;;;5.57;0.70;;;22.70;99.90;;;;;;5027115;28;20303;-80
2023/01/21 11:26:31;;;;;;;2.42;0.80;;;22.70;99.90;;;;;;5025287;28;20733;-80
2023/01/21 11:29:15;;;;;;;2.83;0.80;;;22.70;99.90;;;;;;5037995;28;20214;-80
2023/01/21 11:31:48;;;;;;;4.57;0.90;;;22.80;99.90;;;;;;5020453;28;20225;-80
2023/01/21 11:34:23;;;;;;;2.88;0.75;;;22.80;99.90;;;;;;5033748;28;20206;-80
2023/01/21 11:36:59;;;;;;;6.97;0.88;;;22.80;99.90;;;;;;5032411;28;20283;-80
2023/01/21 11:39:33;;;;;;;2.60;0.80;;;22.70;99.90;;;;;;5017812;28;20193;-80
2023/01/21 11:42:09;;;;;;;2.90;0.73;;;22.70;99.90;;;;;;5018332;28;20240;-80
2023/01/21 11:44:53;;;;;;;3.00;0.80;;;22.70;99.90;;;;;;5029269;28;20220;-80
2023/01/21 11:47:39;;;;;;;3.80;0.93;;;22.70;99.90;;;;;;5032004;28;20200;-80
2023/01/21 11:50:20;;;;;;;3.80;0.80;;;22.80;99.90;;;;;;5031003;28;20271;-80
2023/01/21 11:53:12;;;;;;;3.90;0.60;;;22.70;99.90;;;;;;5034172;28;20195;-81
2023/01/21 11:55:46;;;;;;;3.10;0.85;;;22.80;99.90;;;;;;5040149;28;20237;-81
2023/01/21 11:58:26;;;;;;;2.72;0.88;;;22.70;99.90;;;;;;5028094;28;20552;-80
2023/01/21 12:00:59;;;;;;;3.47;0.80;;;22.80;99.90;;;;;;5035566;28;20686;-79
2023/01/21 12:03:36;;;;;;;2.70;0.77;;;22.70;99.90;;;;;;5012369;28;20663;-80
2023/01/21 12:06:10;;;;;;;3.75;0.90;;;22.80;99.90;;;;;;5028035;28;20189;-81
2023/01/21 12:08:44;;;;;;;4.35;0.70;;;22.80;99.90;;;;;;5032235;28;20223;-81
2023/01/21 12:11:22;;;;;;;1.90;0.60;;;22.80;99.90;;;;;;5032337;28;20225;-81
2023/01/21 12:14:02;;;;;;;3.03;0.70;;;22.70;99.90;;;;;;5031518;28;20223;-81
2023/01/21 12:16:35;;;;;;;2.67;0.90;;;22.80;99.90;;;;;;5030820;28;20217;-81
2023/01/21 12:19:44;;;;;;;2.50;0.80;;;22.80;99.90;;;;;;5016662;28;20266;-81
2023/01/21 12:22:47;;;;;;;3.22;0.90;;;22.80;99.90;;;;;;5011509;28;20200;-81
2023/01/21 12:25:40;;;;;;;2.97;0.65;;;22.90;99.90;;;;;;5029674;28;20355;-80
2023/01/21 12:28:30;;;;;;;4.05;0.95;;;22.80;99.90;;;;;;5025130;28;20260;-80
2023/01/21 12:31:09;;;;;;;2.58;0.77;;;22.80;99.90;;;;;;5024404;28;20225;-81
2023/01/21 12:33:48;;;;;;;4.53;1.00;;;22.80;99.90;;;;;;5022849;28;20225;-81
2023/01/21 12:36:25;;;;;;;2.58;0.80;;;22.90;99.90;;;;;;5048680;28;20188;-81
2023/01/21 12:39:16;;;;;;;4.53;0.80;;;22.80;99.90;;;;;;5034141;28;20213;-80
2023/01/21 12:41:53;;;;;;;5.32;1.05;;;22.80;99.90;;;;;;5023629;28;20225;-82
2023/01/21 12:44:32;;;;;;;2.80;1.13;;;22.80;99.90;;;;;;5019451;28;20193;-81
2023/01/21 12:47:11;;;;;;;4.72;1.00;;;22.80;99.90;;;;;;5030940;28;20225;-82
2023/01/21 12:49:59;;;;;;;5.80;1.15;;;22.70;99.90;;;;;;5028918;28;20249;-81
2023/01/21 12:52:36;;;;;;;3.47;0.93;;;22.70;99.90;;;;;;5036565;28;20212;-81
2023/01/21 12:55:21;;;;;;;5.95;0.90;;;22.70;99.90;;;;;;5031511;28;20231;-81
2023/01/21 12:57:59;;;;;;;6.30;1.10;;;22.70;99.90;;;;;;5031924;28;20237;-82
2023/01/21 13:00:33;;;;;;;8.02;1.10;;;22.60;99.90;;;;;;5024057;28;20224;-81
2023/01/21 13:03:17;;;;;;;4.95;1.10;;;22.60;99.90;;;;;;5026677;28;20193;-80
2023/01/21 13:05:55;;;;;;;6.25;1.20;;;22.50;99.90;;;;;;5015192;28;20228;-81
2023/01/21 13:08:49;;;;;;;5.45;1.30;;;22.60;99.90;;;;;;5030357;28;20191;-80
2023/01/21 13:11:25;;;;;;;4.20;0.70;;;22.60;99.90;;;;;;5035299;28;20243;-82
2023/01/21 13:14:21;;;;;;;2.35;0.70;;;22.60;99.90;;;;;;5034750;28;20193;-81
2023/01/21 13:16:58;;;;;;;6.40;1.05;;;22.60;99.90;;;;;;5034359;28;20209;-80
2023/01/21 13:19:30;;;;;;;7.13;1.10;;;22.50;99.90;;;;;;5031602;28;20215;-80
2023/01/21 13:25:05;;;;;;;5.88;1.00;;;22.40;99.90;;;;;;5032822;28;20272;-80
2023/01/21 13:27:49;;;;;;;3.45;0.80;;;22.40;99.90;;;;;;5033807;28;20198;-80
2023/01/21 13:30:32;;;;;;;4.70;1.10;;;22.30;99.90;;;;;;5032380;28;20220;-80
2023/01/21 13:33:17;;;;;;;3.08;0.90;;;22.30;99.90;;;;;;5027256;28;20218;-80
2023/01/21 13:35:53;;;;;;;4.90;1.00;;;22.30;99.90;;;;;;5030218;28;20195;-80
2023/01/21 13:38:33;;;;;;;4.15;0.77;;;22.30;99.90;;;;;;5047278;28;20185;-80